createdAt,value
2023-04-18T00:03:33.892Z,58.07
2023-04-18T00:07:37.143Z,58.60
2023-04-18T00:11:38.817Z,57.91
2023-04-18T00:15:40.169Z,58.37
2023-04-18T00:19:41.606Z,58.98
2023-04-18T00:23:44.451Z,58.58
2023-04-18T00:27:45.939Z,59.31
2023-04-18T00:31:47.304Z,58.03
2023-04-18T00:35:48.781Z,57.27
2023-04-18T00:39:51.824Z,56.95
2023-04-18T00:43:53.727Z,57.04
2023-04-18T00:47:55.764Z,57.16
2023-04-18T00:51:57.358Z,56.88
2023-04-18T00:56:00.356Z,56.44
2023-04-18T01:00:04.840Z,56.57
2023-04-18T01:04:06.579Z,56.43
2023-04-18T01:08:08.204Z,56.11
2023-04-18T01:12:10.928Z,56.13
2023-04-18T01:16:12.400Z,56.13
2023-04-18T01:20:14.052Z,56.06
2023-04-18T01:24:17.762Z,56.30
2023-04-18T01:28:20.555Z,56.88
2023-04-18T01:32:22.370Z,56.73
2023-04-18T01:36:24.200Z,57.31
2023-04-18T01:40:27.670Z,56.99
2023-04-18T01:44:29.057Z,56.55
2023-04-18T01:48:30.436Z,56.56
2023-04-18T01:52:31.823Z,56.59
2023-04-18T01:56:34.583Z,56.25
2023-04-18T02:00:36.269Z,56.92
2023-04-18T02:04:37.948Z,57.09
2023-04-18T02:08:39.518Z,57.59
2023-04-18T02:12:42.466Z,57.22
2023-04-18T02:16:43.873Z,57.14
2023-04-18T02:20:45.360Z,57.50
2023-04-18T02:24:46.741Z,56.80
2023-04-18T02:28:49.659Z,58.50
2023-04-18T02:32:51.037Z,59.22
2023-04-18T02:36:52.462Z,57.54
2023-04-18T02:40:53.875Z,58.09
2023-04-18T02:44:56.655Z,57.48
2023-04-18T02:48:58.133Z,58.17
2023-04-18T02:52:59.522Z,59.60
2023-04-18T02:57:01.107Z,59.68
2023-04-18T03:01:03.987Z,60.13
2023-04-18T03:05:06.055Z,60.49
2023-04-18T03:09:07.696Z,60.24
2023-04-18T03:13:09.076Z,60.87
2023-04-18T03:17:12.077Z,61.09
2023-04-18T03:21:13.506Z,61.46
2023-04-18T03:25:15.288Z,60.53
2023-04-18T03:29:16.761Z,61.08
2023-04-18T03:33:19.765Z,61.47
2023-04-18T03:37:21.295Z,61.22
2023-04-18T03:41:22.932Z,61.66
2023-04-18T03:45:24.414Z,61.88
2023-04-18T03:49:27.447Z,61.73
2023-04-18T03:53:28.938Z,63.08
2023-04-18T03:57:30.341Z,62.58
2023-04-18T04:01:31.871Z,62.79
2023-04-18T04:05:34.709Z,63.11
2023-04-18T04:09:36.303Z,62.89
2023-04-18T04:13:37.719Z,63.28
2023-04-18T04:17:39.133Z,62.79
2023-04-18T04:21:41.861Z,64.11
2023-04-18T04:25:43.298Z,64.59
2023-04-18T04:29:44.662Z,63.45
2023-04-18T04:33:46.079Z,63.45
2023-04-18T04:37:48.911Z,64.67
2023-04-18T04:41:50.501Z,65.10
2023-04-18T04:45:51.933Z,65.05
2023-04-18T04:49:53.323Z,65.68
2023-04-18T04:53:56.087Z,65.13
2023-04-18T04:57:57.477Z,65.96
2023-04-18T05:01:58.892Z,65.47
2023-04-18T05:06:00.321Z,66.06
2023-04-18T05:10:03.215Z,65.42
2023-04-18T05:14:04.568Z,65.51
2023-04-18T05:18:06.027Z,65.52
2023-04-18T05:22:07.559Z,64.68
2023-04-18T05:26:10.335Z,65.51
2023-04-18T05:30:11.951Z,65.02
2023-04-18T05:34:13.803Z,64.43
2023-04-18T05:38:15.362Z,64.25
2023-04-18T05:42:18.099Z,63.54
2023-04-18T05:46:19.793Z,63.98
2023-04-18T05:50:21.257Z,63.90
2023-04-18T05:54:22.663Z,63.59
2023-04-18T05:58:26.499Z,61.59
2023-04-18T06:02:28.189Z,60.39
2023-04-18T06:06:29.785Z,59.79
2023-04-18T06:10:31.248Z,58.34
2023-04-18T06:14:34.102Z,53.77
2023-04-18T06:18:35.541Z,51.14
2023-04-18T06:22:36.966Z,50.02
2023-04-18T06:26:38.405Z,54.07
2023-04-18T06:30:41.376Z,48.62
2023-04-18T06:34:42.772Z,50.82
2023-04-18T06:38:44.353Z,52.26
2023-04-18T06:42:46.108Z,47.43
2023-04-18T06:46:49.355Z,42.58
2023-04-18T06:50:50.771Z,40.85
2023-04-18T06:54:52.407Z,44.26
2023-04-18T06:58:53.895Z,43.47
2023-04-18T07:02:57.016Z,40.03
2023-04-18T07:06:58.588Z,41.38
2023-04-18T07:11:00.022Z,42.41
2023-04-18T07:15:01.403Z,41.12
2023-04-18T07:19:04.215Z,40.80
2023-04-18T07:23:07.677Z,38.05
2023-04-18T07:27:09.168Z,36.96
2023-04-18T07:31:10.662Z,36.46
2023-04-18T07:35:13.684Z,35.08
2023-04-18T07:39:15.154Z,34.50
2023-04-18T07:43:16.601Z,33.38
2023-04-18T07:47:22.397Z,33.96
2023-04-18T07:51:26.171Z,36.39
2023-04-18T07:55:27.637Z,36.08
2023-04-18T07:59:29.284Z,35.56
2023-04-18T08:03:30.875Z,34.94
2023-04-18T08:07:33.874Z,35.31
2023-04-18T08:11:35.511Z,36.58
2023-04-18T08:15:36.964Z,38.86
2023-04-18T08:19:38.373Z,40.68
2023-04-18T08:23:41.355Z,39.13
2023-04-18T08:27:43.072Z,37.27
2023-04-18T08:31:44.554Z,38.46
2023-04-18T08:35:46.283Z,37.08
2023-04-18T08:39:49.121Z,38.17
2023-04-18T08:43:50.927Z,38.84
2023-04-18T08:47:52.457Z,42.55
2023-04-18T08:51:53.916Z,42.58
2023-04-18T08:55:56.842Z,40.39
2023-04-18T08:59:58.330Z,44.10
2023-04-18T09:03:59.824Z,43.38
2023-04-18T09:08:22.260Z,44.21
2023-04-18T09:12:26.498Z,44.70
2023-04-18T09:16:28.599Z,44.55
2023-04-18T09:20:33.063Z,46.14
2023-04-18T09:24:34.493Z,45.61
2023-04-18T09:28:37.339Z,46.28
2023-04-18T09:32:39.076Z,47.92
2023-04-18T09:36:40.515Z,47.17
2023-04-18T09:40:41.928Z,47.38
2023-04-18T09:45:02.241Z,47.74
2023-04-18T09:49:03.800Z,48.07
2023-04-18T09:53:07.861Z,46.74
2023-04-18T09:57:11.074Z,46.62
2023-04-18T10:01:14.028Z,44.59
2023-04-18T10:05:17.621Z,45.51
2023-04-18T10:09:22.097Z,46.54
2023-04-18T10:13:24.585Z,45.91
2023-04-18T10:17:29.795Z,44.41
2023-04-18T10:21:31.272Z,41.97
2023-04-18T10:25:48.781Z,43.44
2023-04-18T10:29:51.512Z,43.49
2023-04-18T10:34:03.930Z,41.29
2023-04-18T10:38:16.642Z,37.64
2023-04-18T10:42:18.109Z,38.39
2023-04-18T10:46:30.905Z,39.83
2023-04-18T10:50:34.926Z,40.29
2023-04-18T10:54:41.610Z,40.39
2023-04-18T10:58:49.123Z,40.20
2023-04-18T11:02:53.079Z,41.37
2023-04-18T11:06:56.255Z,40.93
2023-04-18T11:10:58.252Z,40.99
2023-04-18T11:15:01.362Z,41.25
2023-04-18T11:19:17.985Z,42.00
2023-04-18T11:23:22.145Z,42.22
2023-04-18T11:27:24.994Z,42.64
2023-04-18T11:31:26.661Z,42.47
2023-04-18T11:35:28.490Z,43.80
2023-04-18T11:39:34.020Z,42.65
2023-04-18T11:43:35.474Z,42.59
2023-04-18T11:47:36.937Z,43.30
2023-04-18T11:51:38.559Z,43.11
2023-04-18T11:55:41.598Z,41.93
2023-04-18T11:59:48.479Z,43.35
2023-04-18T12:04:04.030Z,44.07
2023-04-18T12:08:07.263Z,43.71
2023-04-18T12:12:10.109Z,44.41
2023-04-18T12:16:12.202Z,45.24
2023-04-18T12:20:14.968Z,45.19
2023-04-18T12:24:16.929Z,45.55
2023-04-18T12:28:19.725Z,44.92
2023-04-18T12:32:21.392Z,44.96
2023-04-18T12:36:22.823Z,44.44
2023-04-18T12:40:25.158Z,44.91
2023-04-18T12:44:27.863Z,44.91
2023-04-18T12:48:29.291Z,44.72
2023-04-18T12:52:30.666Z,45.32
2023-04-18T12:56:32.077Z,45.77
2023-04-18T13:00:36.126Z,45.11
2023-04-18T13:04:37.762Z,45.28
2023-04-18T13:08:39.547Z,44.87
2023-04-18T13:12:41.557Z,45.16
2023-04-18T13:16:44.361Z,45.23
2023-04-18T13:20:46.031Z,45.11
2023-04-18T13:24:48.105Z,45.30
2023-04-18T13:28:49.512Z,45.30
2023-04-18T13:32:52.462Z,44.21
2023-04-18T13:36:53.948Z,43.12
2023-04-18T13:41:04.728Z,42.60
2023-04-18T13:45:10.863Z,41.80
2023-04-18T13:49:13.848Z,42.02
2023-04-18T13:53:15.378Z,41.08
2023-04-18T13:57:17.021Z,41.34
2023-04-18T14:01:18.534Z,40.44
2023-04-18T14:05:21.286Z,41.66
2023-04-18T14:09:22.709Z,41.54
2023-04-18T14:13:24.194Z,41.91
2023-04-18T14:17:25.700Z,41.61
2023-04-18T14:21:29.300Z,41.95
2023-04-18T14:25:30.689Z,42.41
2023-04-18T14:29:32.313Z,42.55
2023-04-18T14:33:33.914Z,41.67
2023-04-18T14:37:36.964Z,40.90
2023-04-18T14:41:38.574Z,42.15
2023-04-18T14:45:44.982Z,41.81
2023-04-18T14:49:46.448Z,41.69
2023-04-18T14:53:49.686Z,42.56
2023-04-18T14:57:56.870Z,41.90
2023-04-18T15:01:58.540Z,42.91
2023-04-18T15:06:00.172Z,42.66
2023-04-18T15:10:03.235Z,43.21
2023-04-18T15:14:04.675Z,43.81
2023-04-18T15:18:14.023Z,43.46
2023-04-18T15:22:15.440Z,43.64
2023-04-18T15:26:18.178Z,43.87
2023-04-18T15:30:19.786Z,43.55
2023-04-18T15:34:21.199Z,44.13
2023-04-18T15:38:22.702Z,44.24
2023-04-18T15:42:25.497Z,44.33
2023-04-18T15:46:27.134Z,42.50
2023-04-18T15:50:28.817Z,42.73
2023-04-18T15:54:31.604Z,42.41
2023-04-18T15:58:34.496Z,42.88
2023-04-18T16:02:36.172Z,44.01
2023-04-18T16:06:37.664Z,44.57
2023-04-18T16:10:39.119Z,44.14
2023-04-18T16:14:42.194Z,44.06
2023-04-18T16:18:43.638Z,43.82
2023-04-18T16:22:45.034Z,43.82
2023-04-18T16:26:46.438Z,43.60
2023-04-18T16:30:49.266Z,43.49
2023-04-18T16:34:50.744Z,44.00
2023-04-18T16:38:52.194Z,43.08
2023-04-18T16:42:53.667Z,43.06
2023-04-18T16:46:56.423Z,43.52
2023-04-18T16:50:57.917Z,43.73
2023-04-18T16:54:59.379Z,43.49
2023-04-18T16:59:01.031Z,42.97
2023-04-18T17:03:04.062Z,42.95
2023-04-18T17:07:05.474Z,43.29
2023-04-18T17:11:06.870Z,43.43
2023-04-18T17:15:08.680Z,43.99
2023-04-18T17:19:11.675Z,43.97
2023-04-18T17:23:13.249Z,44.72
2023-04-18T17:27:14.723Z,45.01
2023-04-18T17:31:16.238Z,44.91
2023-04-18T17:35:19.277Z,44.38
2023-04-18T17:39:20.884Z,44.50
2023-04-18T17:43:22.331Z,44.44
2023-04-18T17:47:23.820Z,44.10
2023-04-18T17:51:26.830Z,45.05
2023-04-18T17:55:28.429Z,45.08
2023-04-18T17:59:29.837Z,44.96
2023-04-18T18:03:31.488Z,45.33
2023-04-18T18:07:34.578Z,44.85
2023-04-18T18:11:36.451Z,45.02
2023-04-18T18:15:38.205Z,46.08
2023-04-18T18:19:39.617Z,46.16
2023-04-18T18:23:42.863Z,47.55
2023-04-18T18:27:44.430Z,48.71
2023-04-18T18:31:45.969Z,49.20
2023-04-18T18:35:47.513Z,48.33
2023-04-18T18:39:50.422Z,47.96
2023-04-18T18:43:52.069Z,48.04
2023-04-18T18:47:53.543Z,47.48
2023-04-18T18:51:54.993Z,47.51
2023-04-18T18:55:57.872Z,47.18
2023-04-18T18:59:59.320Z,48.02
2023-04-18T19:04:00.955Z,47.34
2023-04-18T19:08:02.613Z,47.76
2023-04-18T19:12:06.264Z,47.19
2023-04-18T19:16:07.802Z,47.40
2023-04-18T19:20:09.507Z,48.30
2023-04-18T19:24:10.950Z,48.03
2023-04-18T19:28:13.733Z,47.99
2023-04-18T19:32:15.224Z,47.85
2023-04-18T19:36:16.682Z,48.23
2023-04-18T19:40:18.166Z,48.62
2023-04-18T19:44:20.928Z,48.57
2023-04-18T19:48:22.360Z,48.76
2023-04-18T19:52:23.894Z,48.13
2023-04-18T19:56:25.342Z,48.23
2023-04-18T20:00:28.159Z,48.11
2023-04-18T20:04:29.907Z,47.36
2023-04-18T20:08:31.896Z,47.76
2023-04-18T20:12:33.334Z,47.35
2023-04-18T20:16:36.486Z,47.91
2023-04-18T20:20:37.970Z,48.16
2023-04-18T20:24:39.576Z,48.14
2023-04-18T20:28:41.036Z,48.41
2023-04-18T20:32:44.329Z,48.39
2023-04-18T20:36:46.024Z,47.87
2023-04-18T20:40:47.453Z,48.15
2023-04-18T20:44:48.871Z,48.28
2023-04-18T20:48:52.934Z,47.85
2023-04-18T20:52:54.395Z,48.51
2023-04-18T20:56:56.034Z,48.83
2023-04-18T21:00:57.455Z,48.63
2023-04-18T21:05:00.220Z,49.15
2023-04-18T21:09:01.706Z,49.13
2023-04-18T21:13:03.200Z,49.40
2023-04-18T21:17:04.590Z,49.61
2023-04-18T21:21:07.403Z,49.81
2023-04-18T21:25:09.879Z,50.33
2023-04-18T21:29:11.509Z,50.63
2023-04-18T21:33:13.219Z,50.63
2023-04-18T21:37:16.162Z,51.42
2023-04-18T21:41:17.574Z,51.35
2023-04-18T21:45:19.251Z,50.65
2023-04-18T21:49:20.627Z,50.91
2023-04-18T21:53:23.682Z,50.89
2023-04-18T21:57:25.064Z,51.56
2023-04-18T22:01:28.731Z,51.04
2023-04-18T22:05:32.977Z,51.30
2023-04-18T22:09:36.073Z,50.90
2023-04-18T22:13:37.702Z,51.59
2023-04-18T22:17:39.136Z,51.82
2023-04-18T22:25:43.496Z,51.92
2023-04-18T22:29:44.967Z,51.42
2023-04-18T22:33:46.339Z,51.99
2023-04-18T22:37:47.944Z,52.24
2023-04-18T22:41:50.686Z,52.84
2023-04-18T22:45:52.406Z,53.13
2023-04-18T22:49:54.080Z,52.54
2023-04-18T22:53:55.576Z,52.38
2023-04-18T22:57:58.280Z,52.24
2023-04-18T23:02:00.022Z,53.07
2023-04-18T23:06:01.836Z,52.99
2023-04-18T23:10:05.366Z,52.81
2023-04-18T23:14:08.243Z,53.46
2023-04-18T23:18:09.946Z,54.04
2023-04-18T23:22:11.383Z,53.60
2023-04-18T23:26:13.872Z,53.92
2023-04-18T23:30:16.618Z,53.73
2023-04-18T23:34:18.217Z,53.42
2023-04-18T23:38:19.930Z,53.83
2023-04-18T23:42:21.338Z,53.45
2023-04-18T23:46:24.136Z,54.33
2023-04-18T23:50:25.816Z,53.41
2023-04-18T23:54:27.243Z,53.97
2023-04-18T23:58:28.651Z,54.31
